Kimble County Airport
KJCT : rendu visible

Aérodrome :











RETROUVEZ-NOUS SUR...

 
LOGIN :

S'inscrire | Disclaimer

   EN    FR    IT 

 









Légende :    VFR   VFR Marginal   IFR   IFR Intensif   IFR Très Intensif
Visi : 
Plafond : 
>= 8 km
>= 3000ft
5 à 8 km
1000 à 3000 ft
1500m à 5 km
500 à 1000 ft
800 à 1500m
200 à 500 ft
< 800m
< 200 ft
Symboles :   Orages  Brouillard  Fortes neiges  Fortes précipitations  Vent > 20 kt






- Altitude de l'aérodrome : 1749 ft


KJCT - Kimble County

DERNIER METAR :
  • 120451Z AUTO 36010G21KT 10SM OVC037 M01/M05 A3051 RMK AO2 UPE38 SLP315 P0000 T10061050

METARs EXPIRÉS :
  • 120429Z AUTO 01013G19KT 10SM UP FEW018 SCT023 OVC036 M01/M04 A3050 RMK AO2 P0000 T10061044
  • 120351Z AUTO 36012KT 10SM UP OVC021 M01/M03 A3050 RMK AO2 UPE0255B18E27B46 SLP311 P0000 T10061033
  • 120251Z AUTO 01012G20KT 10SM UP OVC020 M01/M03 A3048 RMK AO2 UPE12B29FZRAB12E29 SLP307 P0001 60003 I1001 I3001 T10061033 51027

TAF KJCT
Valide du 12 à 06h jusqu'au 13 à 06h UTC


120520Z 1206/1306 36017G23KT 6SM -RA OVC040
TEMPO 1206/1209 6SM -FZRA
FM120900 01014G20KT P6SM OVC100
FM121200 01012KT P6SM SCT250



MET'MAP, la Météo Aéronautique d'un coup d'oeil ! - Copyright ORBIFLY Décembre 2007 - Disclaimer

ORBIFLY MET'MAP TEAM :

Programmation & Développement : Alexandra Zaïnal
Conception & Développement : Baudouin d'Aumeries
Co-Programmation & Développement : Marc-Olivier Méhu
Soutien technique & logistique : Manuel Goepfert

Contact : metmap@orbifly.com




SOURCES & CREDITS :

   NOAA       Earth
Advisory